createdAt,value
2023-05-05T00:01:53.848Z,7.80
2023-05-05T00:04:22.800Z,7.93
2023-05-05T00:06:50.392Z,8.00
2023-05-05T00:09:17.346Z,8.32
2023-05-05T00:11:46.807Z,8.88
2023-05-05T00:14:14.054Z,8.35
2023-05-05T00:16:40.942Z,9.13
2023-05-05T00:19:08.026Z,10.38
2023-05-05T00:21:34.843Z,10.10
2023-05-05T00:24:01.749Z,10.02
2023-05-05T00:26:28.892Z,11.07
2023-05-05T00:28:56.089Z,11.20
2023-05-05T00:31:23.814Z,10.93
2023-05-05T00:33:50.953Z,12.10
2023-05-05T00:36:17.878Z,11.60
2023-05-05T00:38:44.668Z,12.75
2023-05-05T00:41:11.769Z,12.18
2023-05-05T00:43:38.550Z,11.55
2023-05-05T00:46:23.463Z,11.20
2023-05-05T00:48:51.574Z,10.90
2023-05-05T00:51:19.998Z,10.43
2023-05-05T00:53:48.124Z,10.63
2023-05-05T00:56:16.892Z,10.38
2023-05-05T00:58:44.775Z,10.77
2023-05-05T01:01:12.251Z,10.38
2023-05-05T01:03:39.996Z,10.27
2023-05-05T01:06:31.905Z,9.20
2023-05-05T01:09:22.711Z,9.20
2023-05-05T01:12:11.081Z,9.10
2023-05-05T01:14:47.260Z,8.43
2023-05-05T01:17:18.394Z,8.70
2023-05-05T01:19:51.394Z,8.82
2023-05-05T01:22:22.967Z,8.60
2023-05-05T01:25:20.852Z,8.75
2023-05-05T01:28:12.805Z,8.23
2023-05-05T01:30:49.801Z,8.35
2023-05-05T01:33:24.722Z,7.65
2023-05-05T01:35:56.001Z,6.82
2023-05-05T01:38:28.360Z,6.88
2023-05-05T01:41:10.993Z,6.55
2023-05-05T01:43:38.992Z,6.78
2023-05-05T01:46:07.507Z,7.50
2023-05-05T01:48:34.752Z,8.93
2023-05-05T01:51:02.999Z,9.73
2023-05-05T01:53:31.353Z,8.70
2023-05-05T01:55:59.082Z,8.40
2023-05-05T01:58:28.481Z,7.75
2023-05-05T02:00:57.431Z,7.65
2023-05-05T02:03:25.649Z,8.05
2023-05-05T02:05:53.882Z,7.67
2023-05-05T02:08:21.903Z,7.82
2023-05-05T02:10:51.319Z,7.90
2023-05-05T02:13:19.584Z,7.25
2023-05-05T02:15:47.399Z,7.25
2023-05-05T02:18:14.656Z,7.93
2023-05-05T02:20:41.772Z,7.63
2023-05-05T02:23:08.845Z,7.00
2023-05-05T02:25:42.010Z,6.53
2023-05-05T02:28:17.140Z,7.10
2023-05-05T02:30:46.269Z,7.78
2023-05-05T02:33:19.124Z,8.80
2023-05-05T02:35:47.519Z,8.18
2023-05-05T02:38:18.718Z,8.80
2023-05-05T02:40:52.236Z,7.67
2023-05-05T02:43:23.131Z,7.72
2023-05-05T02:45:50.519Z,7.70
2023-05-05T02:48:18.282Z,7.90
2023-05-05T02:50:45.104Z,8.20
2023-05-05T02:53:30.018Z,9.30
2023-05-05T02:56:29.143Z,9.90
2023-05-05T02:59:15.964Z,9.90
2023-05-05T03:02:10.359Z,9.65
2023-05-05T03:04:46.119Z,9.55
2023-05-05T03:07:21.887Z,9.15
2023-05-05T03:10:08.703Z,8.20
2023-05-05T03:12:54.223Z,8.45
2023-05-05T03:15:50.734Z,8.32
2023-05-05T03:18:22.676Z,8.05
2023-05-05T03:20:56.788Z,7.57
2023-05-05T03:23:23.882Z,7.38
2023-05-05T03:25:55.781Z,6.45
2023-05-05T03:28:33.197Z,6.60
2023-05-05T03:31:05.315Z,5.90
2023-05-05T03:33:35.246Z,5.93
2023-05-05T03:36:02.086Z,4.90
2023-05-05T03:38:29.034Z,4.83
2023-05-05T03:40:56.167Z,4.03
2023-05-05T03:43:26.013Z,4.30
2023-05-05T03:45:53.078Z,4.60
2023-05-05T03:48:20.109Z,4.90
2023-05-05T03:50:48.902Z,4.60
2023-05-05T03:53:17.580Z,4.87
2023-05-05T03:55:44.895Z,4.82
2023-05-05T03:58:11.936Z,5.22
2023-05-05T04:00:38.796Z,4.60
2023-05-05T04:03:05.997Z,5.10
2023-05-05T04:05:32.994Z,4.90
2023-05-05T04:07:59.891Z,4.97
2023-05-05T04:10:27.176Z,5.30
2023-05-05T04:12:54.695Z,5.38
2023-05-05T04:15:22.055Z,5.20
2023-05-05T04:17:49.241Z,4.60
2023-05-05T04:20:16.254Z,5.07
2023-05-05T04:22:43.357Z,4.78
2023-05-05T04:25:10.943Z,5.25
2023-05-05T04:27:38.435Z,5.32
2023-05-05T04:30:06.923Z,5.28
2023-05-05T04:32:35.946Z,5.07
2023-05-05T04:35:02.925Z,4.60
2023-05-05T04:37:29.903Z,4.72
2023-05-05T04:39:58.383Z,4.97
2023-05-05T04:42:25.863Z,4.82
2023-05-05T04:44:53.059Z,5.07
2023-05-05T04:47:19.960Z,5.15
2023-05-05T04:49:47.058Z,5.57
2023-05-05T04:52:14.281Z,5.68
2023-05-05T04:54:41.371Z,5.50
2023-05-05T04:57:08.442Z,6.25
2023-05-05T04:59:36.582Z,6.00
2023-05-05T05:02:03.539Z,5.55
2023-05-05T05:04:30.535Z,5.88
2023-05-05T05:06:59.242Z,6.07
2023-05-05T05:09:26.923Z,5.78
2023-05-05T05:11:53.761Z,5.95
2023-05-05T05:14:21.267Z,5.85
2023-05-05T05:16:52.345Z,6.50
2023-05-05T05:19:21.320Z,6.32
2023-05-05T05:21:48.466Z,6.97
2023-05-05T05:24:16.258Z,6.63
2023-05-05T05:26:43.853Z,6.65
2023-05-05T05:29:11.157Z,6.75
2023-05-05T05:31:39.776Z,7.05
2023-05-05T05:34:07.135Z,7.00
2023-05-05T05:36:34.893Z,7.43
2023-05-05T05:39:02.882Z,7.55
2023-05-05T05:41:29.800Z,7.35
2023-05-05T05:43:57.030Z,7.93
2023-05-05T05:46:24.125Z,7.97
2023-05-05T05:48:51.049Z,8.75
2023-05-05T05:51:18.608Z,8.80
2023-05-05T05:53:46.736Z,9.15
2023-05-05T05:56:14.225Z,8.60
2023-05-05T05:58:42.352Z,8.82
2023-05-05T06:01:10.106Z,8.47
2023-05-05T06:03:37.085Z,8.65
2023-05-05T06:06:04.663Z,8.60
2023-05-05T06:08:31.703Z,12.73
2023-05-05T06:11:00.528Z,9.57
2023-05-05T06:13:27.504Z,10.43
2023-05-05T06:15:54.602Z,10.40
2023-05-05T06:18:21.570Z,10.52
2023-05-05T06:20:52.380Z,10.57
2023-05-05T06:23:22.041Z,10.23
2023-05-05T06:25:55.625Z,10.27
2023-05-05T06:28:22.730Z,10.48
2023-05-05T06:30:49.670Z,10.45
2023-05-05T06:33:16.680Z,9.77
2023-05-05T06:35:43.755Z,9.80
2023-05-05T06:38:10.639Z,9.73
2023-05-05T06:40:37.466Z,9.88
2023-05-05T06:43:04.750Z,9.30
2023-05-05T06:45:36.363Z,9.65
2023-05-05T06:48:03.267Z,9.48
2023-05-05T06:50:30.156Z,9.43
2023-05-05T06:52:56.931Z,9.40
2023-05-05T06:55:24.028Z,9.10
2023-05-05T06:57:50.944Z,8.60
2023-05-05T07:00:18.586Z,8.23
2023-05-05T07:02:47.530Z,7.85
2023-05-05T07:05:14.677Z,8.07
2023-05-05T07:07:52.516Z,7.05
2023-05-05T07:10:20.027Z,6.85
2023-05-05T07:12:47.005Z,7.13
2023-05-05T07:15:26.847Z,7.57
2023-05-05T07:17:55.596Z,7.88
2023-05-05T07:20:22.519Z,6.75
2023-05-05T07:22:49.307Z,6.45
2023-05-05T07:25:16.671Z,6.83
2023-05-05T07:27:43.915Z,6.90
2023-05-05T07:30:15.305Z,7.07
2023-05-05T07:32:44.712Z,6.60
2023-05-05T07:35:11.792Z,6.40
2023-05-05T07:37:38.613Z,6.55
2023-05-05T07:40:06.329Z,7.03
2023-05-05T07:42:33.302Z,5.67
2023-05-05T07:45:00.123Z,6.00
2023-05-05T07:47:27.396Z,6.40
2023-05-05T07:49:54.429Z,6.45
2023-05-05T07:52:30.122Z,6.25
2023-05-05T07:55:05.070Z,6.33
2023-05-05T07:57:31.850Z,6.20
2023-05-05T07:59:58.656Z,6.07
2023-05-05T08:02:25.931Z,5.75
2023-05-05T08:04:52.898Z,6.45
2023-05-05T08:07:20.102Z,5.50
2023-05-05T08:09:47.038Z,5.60
2023-05-05T08:12:15.230Z,5.35
2023-05-05T08:14:42.550Z,5.30
2023-05-05T08:17:09.360Z,5.13
2023-05-05T08:19:36.660Z,5.57
2023-05-05T08:22:03.676Z,5.18
2023-05-05T08:24:31.027Z,5.25
2023-05-05T08:26:57.915Z,5.10
2023-05-05T08:29:24.757Z,5.55
2023-05-05T08:31:51.974Z,4.60
2023-05-05T08:34:19.089Z,5.07
2023-05-05T08:36:45.951Z,5.10
2023-05-05T08:39:12.977Z,5.57
2023-05-05T08:41:40.027Z,5.80
2023-05-05T08:44:08.473Z,5.30
2023-05-05T08:46:36.822Z,5.22
2023-05-05T08:49:05.455Z,4.47
2023-05-05T08:51:41.460Z,5.15
2023-05-05T08:54:12.168Z,5.20
2023-05-05T08:56:44.421Z,4.65
2023-05-05T08:59:13.098Z,5.43
2023-05-05T09:01:41.800Z,4.90
2023-05-05T09:04:09.844Z,5.18
2023-05-05T09:06:37.303Z,6.20
2023-05-05T09:09:04.406Z,6.20
2023-05-05T09:11:34.172Z,6.53
2023-05-05T09:14:01.871Z,6.20
2023-05-05T09:16:28.841Z,6.25
2023-05-05T09:19:05.198Z,5.75
2023-05-05T09:21:32.416Z,6.82
2023-05-05T09:24:13.147Z,5.75
2023-05-05T09:26:43.380Z,5.40
2023-05-05T09:29:17.302Z,6.07
2023-05-05T09:31:44.387Z,5.82
2023-05-05T09:34:16.161Z,5.60
2023-05-05T09:36:49.475Z,5.30
2023-05-05T09:39:20.538Z,5.43
2023-05-05T09:41:47.585Z,6.97
2023-05-05T09:44:17.492Z,7.05
2023-05-05T09:46:55.208Z,7.07
2023-05-05T09:49:27.008Z,5.32
2023-05-05T09:51:54.697Z,4.22
2023-05-05T09:54:29.269Z,4.53
2023-05-05T09:56:59.208Z,4.50
2023-05-05T09:59:26.210Z,3.50
2023-05-05T10:01:53.334Z,2.05
2023-05-05T10:04:29.249Z,1.58
2023-05-05T10:06:58.057Z,1.23
2023-05-05T10:09:28.299Z,0.82
2023-05-05T10:11:57.792Z,0.73
2023-05-05T10:14:25.463Z,0.70
2023-05-05T10:16:54.309Z,0.60
2023-05-05T10:19:24.768Z,0.73
2023-05-05T10:22:02.967Z,0.90
2023-05-05T10:24:53.959Z,1.00
2023-05-05T10:27:22.847Z,0.90
2023-05-05T10:29:54.984Z,0.98
2023-05-05T10:33:08.289Z,1.15
2023-05-05T10:35:47.596Z,1.10
2023-05-05T10:38:16.424Z,1.45
2023-05-05T10:40:46.188Z,1.30
2023-05-05T10:43:15.194Z,1.75
2023-05-05T10:45:43.129Z,2.03
2023-05-05T10:48:26.660Z,2.58
2023-05-05T10:51:08.950Z,3.35
2023-05-05T10:53:52.226Z,3.80
2023-05-05T10:56:33.826Z,3.83
2023-05-05T10:59:01.014Z,3.70
2023-05-05T11:01:35.372Z,4.20
2023-05-05T11:04:22.426Z,4.55
2023-05-05T11:07:08.000Z,4.78
2023-05-05T11:09:42.678Z,4.20
2023-05-05T11:12:09.604Z,4.15
2023-05-05T11:14:36.382Z,4.30
2023-05-05T11:17:03.218Z,4.28
2023-05-05T11:19:47.746Z,4.20
2023-05-05T11:22:15.802Z,3.95
2023-05-05T11:24:42.698Z,4.10
2023-05-05T11:27:10.254Z,4.60
2023-05-05T11:30:06.827Z,4.60
2023-05-05T11:32:33.943Z,4.50
2023-05-05T11:35:01.803Z,4.67
2023-05-05T11:37:29.097Z,3.80
2023-05-05T11:40:19.513Z,3.85
2023-05-05T11:42:46.560Z,3.90
2023-05-05T11:45:24.594Z,3.90
2023-05-05T11:47:51.641Z,3.95
2023-05-05T11:50:20.833Z,3.63
2023-05-05T11:52:48.088Z,3.20
2023-05-05T11:55:21.045Z,4.03
2023-05-05T11:57:47.942Z,3.50
2023-05-05T12:00:15.244Z,3.20
2023-05-05T12:02:42.269Z,2.65
2023-05-05T12:05:09.516Z,2.30
2023-05-05T12:07:36.569Z,2.15
2023-05-05T12:10:03.646Z,1.90
2023-05-05T12:12:36.140Z,1.23
2023-05-05T12:15:03.517Z,1.10
2023-05-05T12:17:47.054Z,1.03
2023-05-05T12:20:14.120Z,1.00
2023-05-05T12:22:41.560Z,1.23
2023-05-05T12:25:08.987Z,1.55
2023-05-05T12:27:36.619Z,1.40
2023-05-05T12:30:17.051Z,1.50
2023-05-05T12:32:44.790Z,1.47
2023-05-05T12:35:12.847Z,1.75
2023-05-05T12:37:40.082Z,1.65
2023-05-05T12:40:28.562Z,1.55
2023-05-05T12:42:55.462Z,1.45
2023-05-05T12:45:22.471Z,1.58
2023-05-05T12:47:49.501Z,1.60
2023-05-05T12:50:30.065Z,1.50
2023-05-05T12:52:57.306Z,1.52
2023-05-05T12:55:37.570Z,1.58
2023-05-05T12:58:04.837Z,1.60
2023-05-05T13:00:31.777Z,1.70
2023-05-05T13:02:58.906Z,1.60
2023-05-05T13:05:41.213Z,1.85
2023-05-05T13:08:08.089Z,1.70
2023-05-05T13:10:35.141Z,1.80
2023-05-05T13:13:02.520Z,1.88
2023-05-05T13:15:29.609Z,1.60
2023-05-05T13:18:01.241Z,1.80
2023-05-05T13:20:28.763Z,2.08
2023-05-05T13:22:55.710Z,2.10
2023-05-05T13:25:22.783Z,2.28
2023-05-05T13:27:49.772Z,2.50
2023-05-05T13:30:16.617Z,2.30
2023-05-05T13:32:43.595Z,2.05
2023-05-05T13:35:11.665Z,2.40
2023-05-05T13:37:41.304Z,3.15
2023-05-05T13:40:08.808Z,2.50
2023-05-05T13:42:35.850Z,2.40
2023-05-05T13:45:02.865Z,2.05
2023-05-05T13:47:29.877Z,2.05
2023-05-05T13:49:56.813Z,1.40
2023-05-05T13:52:23.825Z,1.50
2023-05-05T13:54:51.423Z,1.10
2023-05-05T13:57:18.585Z,1.23
2023-05-05T13:59:45.570Z,1.38
2023-05-05T14:02:12.519Z,1.10
2023-05-05T14:04:39.486Z,1.00
2023-05-05T14:07:06.430Z,1.20
2023-05-05T14:09:33.295Z,1.10
2023-05-05T14:12:00.389Z,1.10
2023-05-05T14:14:27.290Z,1.30
2023-05-05T14:16:54.241Z,1.33
2023-05-05T14:19:21.118Z,1.40
2023-05-05T14:21:48.030Z,1.70
2023-05-05T14:24:15.049Z,1.20
2023-05-05T14:26:42.184Z,1.33
2023-05-05T14:29:09.105Z,1.30
2023-05-05T14:31:36.759Z,1.20
2023-05-05T14:34:03.832Z,1.33
2023-05-05T14:36:31.307Z,1.17
2023-05-05T14:38:58.326Z,1.40
2023-05-05T14:41:25.240Z,1.40
2023-05-05T14:43:52.164Z,1.40
2023-05-05T14:46:19.067Z,1.20
2023-05-05T14:48:47.483Z,0.60
2023-05-05T14:51:15.933Z,0.85
2023-05-05T14:53:42.904Z,1.00
2023-05-05T14:56:09.955Z,0.80
2023-05-05T14:58:37.389Z,0.90
2023-05-05T15:01:04.798Z,0.80
2023-05-05T15:03:31.806Z,0.70
2023-05-05T15:05:58.952Z,0.70
2023-05-05T15:08:25.898Z,1.07
2023-05-05T15:10:52.816Z,1.10
2023-05-05T15:13:19.743Z,0.90
2023-05-05T15:15:46.943Z,1.80
2023-05-05T15:18:13.851Z,1.60
2023-05-05T15:20:40.754Z,0.90
2023-05-05T15:23:07.589Z,0.70
2023-05-05T15:25:34.436Z,0.70
2023-05-05T15:28:01.342Z,0.90
2023-05-05T15:30:28.482Z,0.90
2023-05-05T15:32:55.495Z,1.00
2023-05-05T15:35:25.398Z,0.80
2023-05-05T15:37:53.483Z,0.98
2023-05-05T15:40:20.639Z,0.70
2023-05-05T15:42:49.745Z,0.77
2023-05-05T15:45:17.086Z,0.80
2023-05-05T15:47:44.037Z,0.90
2023-05-05T15:50:11.065Z,0.80
2023-05-05T15:52:38.101Z,1.00
2023-05-05T15:55:05.576Z,0.70
2023-05-05T15:57:34.168Z,0.90
2023-05-05T16:00:01.573Z,0.98
2023-05-05T16:02:28.538Z,1.00
2023-05-05T16:04:55.507Z,1.02
2023-05-05T16:07:22.392Z,0.90
2023-05-05T16:09:49.356Z,0.90
2023-05-05T16:12:16.585Z,1.10
2023-05-05T16:14:43.673Z,1.00
2023-05-05T16:17:10.634Z,0.93
2023-05-05T16:19:37.465Z,1.20
2023-05-05T16:22:05.128Z,1.10
2023-05-05T16:24:32.225Z,1.10
2023-05-05T16:26:59.336Z,1.00
2023-05-05T16:29:26.665Z,1.42
2023-05-05T16:31:53.626Z,1.35
2023-05-05T16:34:20.579Z,1.50
2023-05-05T16:36:47.561Z,1.42
2023-05-05T16:39:14.476Z,1.55
2023-05-05T16:41:41.573Z,1.33
2023-05-05T16:44:08.382Z,1.43
2023-05-05T16:46:37.531Z,1.60
2023-05-05T16:49:04.577Z,1.50
2023-05-05T16:51:31.874Z,1.27
2023-05-05T16:53:58.846Z,1.50
2023-05-05T16:56:25.766Z,1.30
2023-05-05T16:58:52.781Z,1.55
2023-05-05T17:01:19.738Z,1.60
2023-05-05T17:03:46.685Z,1.60
2023-05-05T17:06:13.611Z,1.58
2023-05-05T17:08:40.532Z,1.50
2023-05-05T17:11:08.101Z,1.63
2023-05-05T17:13:35.986Z,1.67
2023-05-05T17:16:02.932Z,1.65
2023-05-05T17:18:29.780Z,1.67
2023-05-05T17:20:57.120Z,1.60
2023-05-05T17:23:24.174Z,1.50
2023-05-05T17:25:52.168Z,1.45
2023-05-05T17:28:19.343Z,1.50
2023-05-05T17:30:47.009Z,1.73
2023-05-05T17:33:16.807Z,1.90
2023-05-05T17:35:43.768Z,1.90
2023-05-05T17:38:10.630Z,2.50
2023-05-05T17:40:37.543Z,1.80
2023-05-05T17:43:04.602Z,2.03
2023-05-05T17:45:31.712Z,1.70
2023-05-05T17:47:58.759Z,1.60
2023-05-05T17:50:25.707Z,1.90
2023-05-05T17:52:52.680Z,2.08
2023-05-05T17:55:20.102Z,2.00
2023-05-05T17:57:47.454Z,1.90
2023-05-05T18:00:14.855Z,1.92
2023-05-05T18:02:41.953Z,1.90
2023-05-05T18:05:09.327Z,1.58
2023-05-05T18:07:36.557Z,1.80
2023-05-05T18:10:03.447Z,1.65
2023-05-05T18:12:30.301Z,1.90
2023-05-05T18:14:57.295Z,1.90
2023-05-05T18:17:24.117Z,2.05
2023-05-05T18:19:50.938Z,2.20
2023-05-05T18:22:17.931Z,2.38
2023-05-05T18:24:45.793Z,2.28
2023-05-05T18:27:12.939Z,2.50
2023-05-05T18:29:40.029Z,2.60
2023-05-05T18:32:07.039Z,2.50
2023-05-05T18:34:34.481Z,2.13
2023-05-05T18:37:01.510Z,2.60
2023-05-05T18:39:28.310Z,2.75
2023-05-05T18:41:55.215Z,2.53
2023-05-05T18:44:22.211Z,2.67
2023-05-05T18:46:49.125Z,3.10
2023-05-05T18:49:16.319Z,2.93
2023-05-05T18:51:43.877Z,2.80
2023-05-05T18:54:10.766Z,3.20
2023-05-05T18:56:37.595Z,3.15
2023-05-05T18:59:04.960Z,3.08
2023-05-05T19:01:32.706Z,3.05
2023-05-05T19:03:59.705Z,3.00
2023-05-05T19:06:27.506Z,2.88
2023-05-05T19:08:56.733Z,3.00
2023-05-05T19:11:23.924Z,2.90
2023-05-05T19:13:51.388Z,3.00
2023-05-05T19:16:18.800Z,3.13
2023-05-05T19:18:45.721Z,3.30
2023-05-05T19:21:12.700Z,3.47
2023-05-05T19:23:39.574Z,3.03
2023-05-05T19:26:06.427Z,2.92
2023-05-05T19:28:33.452Z,3.00
2023-05-05T19:31:00.377Z,2.97
2023-05-05T19:33:27.308Z,2.42
2023-05-05T19:35:54.431Z,2.70
2023-05-05T19:38:21.229Z,3.30
2023-05-05T19:40:48.427Z,3.40
2023-05-05T19:43:15.467Z,3.30
2023-05-05T19:45:42.515Z,3.45
2023-05-05T19:48:09.405Z,3.03
2023-05-05T19:50:36.562Z,2.90
2023-05-05T19:53:04.636Z,3.13
2023-05-05T19:55:32.134Z,2.92
2023-05-05T19:57:59.188Z,2.83
2023-05-05T20:00:26.157Z,3.15
2023-05-05T20:02:53.212Z,3.30
2023-05-05T20:05:20.441Z,3.15
2023-05-05T20:07:47.347Z,3.60
2023-05-05T20:10:14.341Z,3.50
2023-05-05T20:12:49.133Z,3.28
2023-05-05T20:15:20.481Z,3.30
2023-05-05T20:17:48.488Z,3.67
2023-05-05T20:20:17.620Z,3.70
2023-05-05T20:22:45.896Z,3.63
2023-05-05T20:25:14.789Z,4.03
2023-05-05T20:27:42.179Z,3.60
2023-05-05T20:30:10.699Z,3.90
2023-05-05T20:32:38.429Z,3.90
2023-05-05T20:35:06.278Z,4.10
2023-05-05T20:37:33.348Z,3.95
2023-05-05T20:40:00.242Z,4.20
2023-05-05T20:42:28.029Z,4.45
2023-05-05T20:44:55.013Z,4.38
2023-05-05T20:47:21.963Z,4.88
2023-05-05T20:49:48.890Z,4.63
2023-05-05T20:52:15.997Z,4.15
2023-05-05T20:54:42.862Z,4.80
2023-05-05T20:57:10.354Z,5.22
2023-05-05T20:59:37.967Z,5.10
2023-05-05T21:02:04.966Z,5.13
2023-05-05T21:04:31.982Z,5.38
2023-05-05T21:06:58.804Z,5.28
2023-05-05T21:09:26.065Z,4.85
2023-05-05T21:11:53.016Z,5.65
2023-05-05T21:14:20.041Z,5.30
2023-05-05T21:16:48.222Z,5.60
2023-05-05T21:19:15.320Z,5.70
2023-05-05T21:21:42.245Z,5.72
2023-05-05T21:24:09.398Z,5.93
2023-05-05T21:26:36.423Z,5.80
2023-05-05T21:29:03.394Z,6.10
2023-05-05T21:31:30.431Z,5.83
2023-05-05T21:33:57.241Z,5.63
2023-05-05T21:36:24.725Z,5.70
2023-05-05T21:38:51.694Z,6.80
2023-05-05T21:41:18.453Z,6.57
2023-05-05T21:43:45.370Z,6.60
2023-05-05T21:46:12.523Z,5.97
2023-05-05T21:48:41.620Z,6.47
2023-05-05T21:51:08.676Z,6.13
2023-05-05T21:53:35.585Z,6.43
2023-05-05T21:56:02.615Z,6.00
2023-05-05T21:58:29.550Z,5.50
2023-05-05T22:00:56.417Z,6.00
2023-05-05T22:03:23.642Z,6.30
2023-05-05T22:05:51.072Z,6.35
2023-05-05T22:08:19.112Z,6.10
2023-05-05T22:10:46.785Z,6.03
2023-05-05T22:13:14.575Z,6.43
2023-05-05T22:15:46.818Z,6.07
2023-05-05T22:18:15.018Z,6.45
2023-05-05T22:20:42.171Z,6.60
2023-05-05T22:23:09.150Z,6.38
2023-05-05T22:25:36.118Z,7.43
2023-05-05T22:28:03.077Z,6.70
2023-05-05T22:30:29.928Z,5.90
2023-05-05T22:32:57.081Z,6.47
2023-05-05T22:35:24.528Z,6.40
2023-05-05T22:37:51.708Z,7.60
2023-05-05T22:40:18.710Z,8.88
2023-05-05T22:42:45.663Z,9.13
2023-05-05T22:45:13.601Z,9.30
2023-05-05T22:47:40.841Z,9.13
2023-05-05T22:50:08.484Z,8.13
2023-05-05T22:52:35.509Z,10.00
2023-05-05T22:55:02.802Z,8.27
2023-05-05T22:57:29.817Z,8.93
2023-05-05T22:59:56.783Z,8.38
2023-05-05T23:02:24.016Z,6.80
2023-05-05T23:04:52.705Z,8.52
2023-05-05T23:07:20.179Z,9.30
2023-05-05T23:09:47.626Z,8.00
2023-05-05T23:12:14.438Z,7.35
2023-05-05T23:14:41.858Z,7.30
2023-05-05T23:17:08.762Z,8.43
2023-05-05T23:19:36.090Z,8.93
2023-05-05T23:22:03.695Z,9.07
2023-05-05T23:24:30.994Z,8.83
2023-05-05T23:27:04.226Z,10.20
2023-05-05T23:29:31.873Z,8.07
2023-05-05T23:31:58.827Z,7.85
2023-05-05T23:34:26.787Z,8.60
2023-05-05T23:36:53.616Z,9.73
2023-05-05T23:39:20.599Z,9.45
2023-05-05T23:41:47.401Z,9.10
2023-05-05T23:44:14.411Z,9.85
2023-05-05T23:46:41.509Z,10.43
2023-05-05T23:49:08.531Z,10.98
2023-05-05T23:51:35.668Z,10.05
2023-05-05T23:54:02.656Z,9.98
2023-05-05T23:56:29.462Z,10.70
2023-05-05T23:58:56.306Z,10.75
